createdAt,value
2023-02-24T00:02:04.131Z,9.51
2023-02-24T00:04:34.413Z,9.45
2023-02-24T00:07:01.413Z,9.58
2023-02-24T00:09:30.450Z,9.49
2023-02-24T00:11:59.772Z,9.60
2023-02-24T00:14:30.877Z,9.68
2023-02-24T00:16:58.860Z,9.52
2023-02-24T00:19:29.297Z,9.36
2023-02-24T00:21:56.222Z,9.45
2023-02-24T00:24:23.317Z,9.52
2023-02-24T00:26:54.713Z,9.64
2023-02-24T00:29:24.425Z,9.69
2023-02-24T00:32:00.721Z,9.66
2023-02-24T00:34:29.785Z,9.76
2023-02-24T00:36:58.278Z,9.72
2023-02-24T00:39:33.798Z,9.63
2023-02-24T00:42:06.861Z,9.64
2023-02-24T00:44:41.067Z,9.68
2023-02-24T00:47:10.582Z,9.52
2023-02-24T00:49:43.024Z,9.53
2023-02-24T00:52:14.809Z,9.55
2023-02-24T00:54:43.264Z,9.55
2023-02-24T00:57:11.266Z,9.54
2023-02-24T00:59:39.289Z,9.52
2023-02-24T01:02:07.386Z,9.46
2023-02-24T01:04:35.124Z,9.36
2023-02-24T01:07:02.070Z,9.33
2023-02-24T01:09:31.597Z,9.24
2023-02-24T01:12:22.375Z,9.22
2023-02-24T01:14:52.066Z,9.16
2023-02-24T01:17:21.046Z,9.23
2023-02-24T01:19:49.845Z,9.33
2023-02-24T01:22:19.062Z,9.26
2023-02-24T01:24:46.612Z,9.22
2023-02-24T01:27:15.057Z,9.12
2023-02-24T01:29:41.948Z,9.01
2023-02-24T01:32:14.268Z,8.85
2023-02-24T01:34:42.683Z,8.89
2023-02-24T01:37:10.193Z,8.87
2023-02-24T01:39:37.388Z,8.79
2023-02-24T01:42:06.933Z,8.73
2023-02-24T01:44:33.747Z,8.64
2023-02-24T01:47:04.100Z,8.62
2023-02-24T01:49:44.890Z,8.54
2023-02-24T01:52:14.182Z,8.38
2023-02-24T01:54:55.346Z,8.29
2023-02-24T01:57:24.313Z,8.23
2023-02-24T01:59:54.850Z,8.17
2023-02-24T02:02:23.591Z,8.21
2023-02-24T02:04:57.314Z,8.13
2023-02-24T02:07:28.634Z,8.06
2023-02-24T02:10:04.368Z,8.03
2023-02-24T02:12:37.287Z,8.07
2023-02-24T02:15:06.422Z,8.06
2023-02-24T02:17:58.130Z,8.00
2023-02-24T02:21:07.177Z,7.91
2023-02-24T02:23:54.274Z,7.86
2023-02-24T02:26:47.471Z,7.79
2023-02-24T02:29:32.865Z,7.81
2023-02-24T02:32:31.733Z,7.55
2023-02-24T02:35:19.484Z,7.57
2023-02-24T02:38:25.437Z,7.57
2023-02-24T02:41:17.419Z,7.39
2023-02-24T02:43:57.240Z,7.35
2023-02-24T02:46:35.110Z,7.25
2023-02-24T02:49:44.774Z,7.06
2023-02-24T02:52:34.894Z,7.12
2023-02-24T02:55:09.951Z,7.25
2023-02-24T02:57:40.427Z,7.16
2023-02-24T03:00:23.338Z,7.20
2023-02-24T03:02:55.419Z,7.29
2023-02-24T03:05:32.708Z,7.24
2023-02-24T03:08:04.901Z,7.34
2023-02-24T03:10:34.513Z,7.27
2023-02-24T03:13:06.292Z,7.27
2023-02-24T03:15:34.458Z,7.40
2023-02-24T03:18:10.613Z,7.38
2023-02-24T03:20:43.980Z,7.42
2023-02-24T03:23:18.862Z,7.48
2023-02-24T03:26:21.772Z,7.50
2023-02-24T03:29:36.635Z,7.43
2023-02-24T03:32:26.967Z,7.47
2023-02-24T03:35:22.057Z,7.43
2023-02-24T03:37:50.487Z,7.46
2023-02-24T03:40:18.421Z,7.43
2023-02-24T03:42:57.893Z,7.38
2023-02-24T03:45:28.026Z,7.38
2023-02-24T03:47:56.206Z,7.38
2023-02-24T03:50:23.564Z,7.33
2023-02-24T03:52:55.638Z,7.41
2023-02-24T03:55:35.035Z,7.41
2023-02-24T03:58:32.646Z,7.31
2023-02-24T04:01:34.938Z,7.38
2023-02-24T04:04:13.020Z,7.31
2023-02-24T04:06:58.517Z,7.28
2023-02-24T04:10:03.077Z,7.23
2023-02-24T04:12:54.418Z,7.20
2023-02-24T04:15:38.643Z,7.19
2023-02-24T04:18:21.064Z,7.17
2023-02-24T04:20:53.598Z,7.07
2023-02-24T04:23:39.240Z,6.95
2023-02-24T04:26:07.997Z,7.08
2023-02-24T04:28:37.058Z,7.10
2023-02-24T04:31:10.337Z,7.03
2023-02-24T04:33:39.142Z,7.10
2023-02-24T04:36:09.151Z,7.06
2023-02-24T04:38:38.905Z,7.06
2023-02-24T04:41:06.277Z,7.07
2023-02-24T04:43:33.083Z,7.13
2023-02-24T04:46:00.584Z,7.06
2023-02-24T04:48:27.550Z,6.97
2023-02-24T04:50:55.435Z,6.84
2023-02-24T04:53:27.300Z,6.84
2023-02-24T04:55:56.343Z,6.94
2023-02-24T04:58:28.149Z,7.05
2023-02-24T05:00:56.140Z,6.99
2023-02-24T05:03:29.058Z,6.92
2023-02-24T05:06:00.472Z,6.86
2023-02-24T05:08:29.500Z,6.95
2023-02-24T05:10:58.779Z,6.89
2023-02-24T05:13:28.503Z,7.00
2023-02-24T05:15:58.097Z,7.02
2023-02-24T05:18:25.657Z,6.97
2023-02-24T05:21:15.689Z,7.04
2023-02-24T05:23:45.035Z,6.99
2023-02-24T05:26:17.270Z,7.04
2023-02-24T05:28:49.484Z,7.23
2023-02-24T05:31:20.257Z,7.23
2023-02-24T05:33:49.613Z,7.28
2023-02-24T05:36:19.154Z,7.30
2023-02-24T05:38:56.620Z,7.17
2023-02-24T05:41:32.588Z,7.17
2023-02-24T05:44:02.572Z,7.02
2023-02-24T05:46:32.815Z,6.87
2023-02-24T05:49:02.758Z,6.91
2023-02-24T05:51:36.108Z,6.94
2023-02-24T05:54:04.883Z,6.69
2023-02-24T05:56:36.368Z,6.70
2023-02-24T05:59:08.014Z,6.74
2023-02-24T06:01:37.788Z,6.84
2023-02-24T06:04:07.085Z,6.64
2023-02-24T06:06:35.792Z,6.75
2023-02-24T06:09:13.601Z,6.86
2023-02-24T06:11:42.485Z,6.89
2023-02-24T06:14:11.097Z,6.81
2023-02-24T06:16:40.127Z,6.88
2023-02-24T06:19:08.480Z,6.79
2023-02-24T06:21:36.166Z,6.86
2023-02-24T06:24:03.221Z,6.85
2023-02-24T06:26:36.955Z,6.86
2023-02-24T06:29:05.694Z,6.92
2023-02-24T06:31:32.551Z,6.83
2023-02-24T06:33:59.470Z,6.89
2023-02-24T06:36:28.284Z,6.88
2023-02-24T06:39:18.611Z,6.88
2023-02-24T06:41:52.086Z,6.95
2023-02-24T06:44:30.883Z,7.05
2023-02-24T06:47:11.855Z,7.06
2023-02-24T06:49:46.488Z,7.17
2023-02-24T06:52:26.143Z,7.32
2023-02-24T06:55:00.038Z,7.28
2023-02-24T06:57:30.885Z,7.27
2023-02-24T07:00:17.937Z,7.31
2023-02-24T07:02:49.641Z,7.48
2023-02-24T07:05:17.353Z,7.54
2023-02-24T07:07:51.729Z,7.80
2023-02-24T07:10:42.109Z,7.92
2023-02-24T07:13:15.641Z,8.13
2023-02-24T07:15:55.260Z,8.16
2023-02-24T07:18:35.328Z,8.28
2023-02-24T07:21:17.741Z,8.47
2023-02-24T07:23:59.570Z,8.75
2023-02-24T07:27:06.753Z,9.04
2023-02-24T07:32:23.774Z,8.89
2023-02-24T07:34:59.710Z,8.79
2023-02-24T07:37:35.859Z,8.79
2023-02-24T07:40:04.760Z,9.03
2023-02-24T07:42:35.495Z,9.18
2023-02-24T07:45:06.308Z,9.15
2023-02-24T07:47:33.662Z,9.33
2023-02-24T07:50:00.608Z,9.38
2023-02-24T07:52:27.501Z,9.55
2023-02-24T07:54:55.328Z,9.62
2023-02-24T07:57:25.350Z,9.51
2023-02-24T07:59:54.297Z,9.46
2023-02-24T08:02:21.101Z,9.55
2023-02-24T08:04:51.716Z,9.65
2023-02-24T08:07:25.275Z,9.67
2023-02-24T08:10:12.176Z,9.91
2023-02-24T08:12:42.946Z,9.92
2023-02-24T08:15:17.548Z,10.25
2023-02-24T08:17:47.620Z,10.49
2023-02-24T08:20:14.728Z,10.51
2023-02-24T08:22:46.844Z,10.56
2023-02-24T08:25:19.313Z,10.77
2023-02-24T08:28:12.798Z,10.71
2023-02-24T08:30:46.279Z,10.78
2023-02-24T08:33:22.407Z,11.06
2023-02-24T08:36:01.401Z,11.02
2023-02-24T08:38:40.112Z,11.27
2023-02-24T08:41:13.347Z,11.45
2023-02-24T08:43:42.295Z,11.49
2023-02-24T08:46:21.605Z,11.70
2023-02-24T08:48:55.690Z,11.70
2023-02-24T08:51:37.157Z,11.89
2023-02-24T08:54:15.589Z,11.80
2023-02-24T08:56:56.228Z,11.83
2023-02-24T08:59:38.345Z,12.00
2023-02-24T09:02:18.418Z,12.05
2023-02-24T09:04:58.120Z,12.13
2023-02-24T09:07:27.185Z,12.18
2023-02-24T09:09:58.741Z,12.32
2023-02-24T09:12:29.400Z,12.08
2023-02-24T09:15:05.688Z,12.27
2023-02-24T09:17:50.228Z,12.28
2023-02-24T09:20:41.879Z,12.30
2023-02-24T09:23:20.321Z,12.60
2023-02-24T09:25:50.824Z,12.49
2023-02-24T09:28:20.889Z,12.34
2023-02-24T09:30:55.523Z,12.53
2023-02-24T09:33:25.448Z,12.52
2023-02-24T09:36:12.973Z,12.96
2023-02-24T09:39:01.486Z,12.88
2023-02-24T09:41:54.783Z,13.18
2023-02-24T09:44:42.635Z,13.29
2023-02-24T09:47:55.282Z,13.31
2023-02-24T09:50:55.122Z,13.27
2023-02-24T09:53:17.685Z,12.84
2023-02-24T09:56:04.045Z,13.32
2023-02-24T09:59:12.206Z,13.18
2023-02-24T10:02:15.068Z,13.53
2023-02-24T10:05:07.838Z,13.74
2023-02-24T10:07:40.781Z,13.53
2023-02-24T10:10:35.912Z,13.68
2023-02-24T10:13:32.795Z,14.31
2023-02-24T10:16:07.216Z,14.51
2023-02-24T10:19:01.435Z,14.78
2023-02-24T10:22:00.581Z,14.91
2023-02-24T10:24:47.537Z,15.00
2023-02-24T10:27:24.254Z,15.27
2023-02-24T10:30:05.969Z,15.20
2023-02-24T10:33:00.531Z,15.03
2023-02-24T10:35:33.974Z,15.03
2023-02-24T10:38:05.581Z,14.87
2023-02-24T10:41:00.585Z,14.91
2023-02-24T10:43:33.233Z,15.06
2023-02-24T10:46:17.534Z,15.14
2023-02-24T10:48:52.870Z,15.42
2023-02-24T10:51:22.614Z,15.27
2023-02-24T10:54:10.297Z,15.11
2023-02-24T10:56:44.869Z,15.10
2023-02-24T10:59:24.865Z,14.90
2023-02-24T11:02:06.892Z,14.91
2023-02-24T11:04:56.482Z,14.92
2023-02-24T11:07:33.873Z,14.87
2023-02-24T11:10:26.196Z,14.85
2023-02-24T11:13:13.992Z,14.77
2023-02-24T11:16:09.613Z,14.86
2023-02-24T11:18:38.032Z,15.18
2023-02-24T11:21:12.460Z,15.21
2023-02-24T11:23:44.378Z,15.22
2023-02-24T11:26:40.380Z,15.34
2023-02-24T11:29:46.575Z,15.26
2023-02-24T11:32:22.836Z,15.32
2023-02-24T11:35:26.515Z,15.40
2023-02-24T11:38:09.795Z,15.88
2023-02-24T11:40:41.803Z,16.19
2023-02-24T11:43:18.573Z,16.26
2023-02-24T11:46:10.046Z,16.57
2023-02-24T11:48:41.607Z,16.20
2023-02-24T11:51:16.782Z,16.49
2023-02-24T11:53:49.610Z,16.07
2023-02-24T11:56:28.213Z,15.82
2023-02-24T11:59:07.092Z,16.15
2023-02-24T12:01:45.967Z,16.20
2023-02-24T12:04:49.673Z,16.53
2023-02-24T12:07:28.495Z,16.22
2023-02-24T12:10:17.878Z,16.20
2023-02-24T12:12:50.042Z,16.16
2023-02-24T12:15:27.291Z,16.10
2023-02-24T12:18:05.367Z,15.83
2023-02-24T12:20:50.887Z,15.85
2023-02-24T12:23:35.695Z,15.90
2023-02-24T12:26:24.221Z,15.53
2023-02-24T12:29:18.915Z,15.63
2023-02-24T12:31:55.085Z,15.66
2023-02-24T12:34:57.648Z,15.91
2023-02-24T12:37:30.677Z,15.64
2023-02-24T12:40:34.998Z,15.82
2023-02-24T12:43:14.278Z,15.94
2023-02-24T12:45:51.302Z,15.88
2023-02-24T12:48:37.003Z,15.66
2023-02-24T12:51:16.177Z,15.65
2023-02-24T12:54:13.674Z,15.42
2023-02-24T12:57:23.961Z,15.39
2023-02-24T12:59:58.006Z,15.11
2023-02-24T13:02:48.571Z,15.01
2023-02-24T13:05:29.427Z,15.01
2023-02-24T13:08:22.857Z,14.95
2023-02-24T13:11:03.673Z,14.82
2023-02-24T13:13:52.259Z,14.75
2023-02-24T13:16:33.914Z,14.64
2023-02-24T13:19:28.445Z,14.49
2023-02-24T13:22:14.203Z,14.45
2023-02-24T13:24:54.636Z,14.45
2023-02-24T13:27:32.710Z,14.29
2023-02-24T13:30:05.367Z,14.24
2023-02-24T13:32:39.123Z,13.98
2023-02-24T13:35:26.215Z,14.07
2023-02-24T13:37:54.074Z,13.98
2023-02-24T13:40:24.085Z,13.96
2023-02-24T13:43:27.297Z,13.92
2023-02-24T13:46:00.654Z,13.93
2023-02-24T13:49:08.488Z,13.91
2023-02-24T13:51:50.031Z,13.96
2023-02-24T13:54:23.022Z,13.97
2023-02-24T13:57:25.165Z,13.85
2023-02-24T14:00:10.299Z,13.81
2023-02-24T14:02:44.355Z,13.80
2023-02-24T14:05:25.564Z,13.89
2023-02-24T14:07:54.169Z,13.81
2023-02-24T14:10:30.185Z,13.88
2023-02-24T14:13:06.705Z,13.86
2023-02-24T14:15:34.408Z,13.76
2023-02-24T14:18:04.782Z,13.76
2023-02-24T14:20:38.245Z,13.73
2023-02-24T14:23:24.270Z,13.77
2023-02-24T14:26:09.422Z,13.79
2023-02-24T14:28:39.612Z,13.88
2023-02-24T14:31:11.067Z,13.85
2023-02-24T14:33:40.348Z,13.90
2023-02-24T14:36:16.561Z,13.96
2023-02-24T14:38:45.279Z,13.84
2023-02-24T14:41:25.861Z,13.71
2023-02-24T14:43:53.119Z,13.72
2023-02-24T14:46:21.043Z,13.78
2023-02-24T14:48:56.430Z,13.72
2023-02-24T14:51:25.601Z,13.72
2023-02-24T14:53:55.876Z,13.72
2023-02-24T14:56:30.666Z,13.72
2023-02-24T14:59:24.228Z,13.65
2023-02-24T15:02:03.913Z,13.63
2023-02-24T15:04:37.152Z,13.67
2023-02-24T15:07:17.480Z,13.64
2023-02-24T15:09:48.219Z,13.51
2023-02-24T15:12:51.287Z,13.57
2023-02-24T15:15:23.077Z,13.56
2023-02-24T15:17:56.678Z,13.54
2023-02-24T15:20:36.109Z,13.66
2023-02-24T15:23:03.594Z,13.64
2023-02-24T15:25:43.749Z,13.75
2023-02-24T15:28:31.459Z,13.72
2023-02-24T15:31:01.236Z,13.60
2023-02-24T15:33:39.314Z,13.55
2023-02-24T15:36:15.523Z,13.67
2023-02-24T15:38:44.369Z,13.60
2023-02-24T15:41:13.501Z,13.61
2023-02-24T15:43:50.331Z,13.55
2023-02-24T15:46:30.209Z,13.57
2023-02-24T15:49:01.898Z,13.59
2023-02-24T15:51:28.833Z,13.48
2023-02-24T15:53:55.779Z,13.49
2023-02-24T15:56:23.667Z,13.40
2023-02-24T15:58:50.994Z,13.42
2023-02-24T16:01:18.211Z,13.35
2023-02-24T16:03:45.291Z,13.44
2023-02-24T16:06:20.064Z,13.49
2023-02-24T16:08:49.051Z,13.43
2023-02-24T16:11:18.651Z,13.33
2023-02-24T16:13:54.927Z,13.30
2023-02-24T16:16:23.144Z,13.36
2023-02-24T16:18:50.719Z,13.33
2023-02-24T16:21:18.299Z,13.37
2023-02-24T16:23:45.481Z,13.32
2023-02-24T16:26:18.225Z,13.26
2023-02-24T16:28:56.286Z,13.33
2023-02-24T16:31:25.839Z,13.27
2023-02-24T16:33:55.692Z,13.25
2023-02-24T16:36:24.580Z,13.22
2023-02-24T16:38:51.843Z,13.18
2023-02-24T16:41:19.318Z,13.24
2023-02-24T16:43:46.280Z,13.14
2023-02-24T16:46:17.305Z,13.15
2023-02-24T16:48:49.336Z,13.16
2023-02-24T16:51:16.703Z,13.15
2023-02-24T16:53:44.141Z,13.09
2023-02-24T16:56:12.721Z,13.18
2023-02-24T16:58:39.582Z,13.15
2023-02-24T17:01:06.661Z,13.05
2023-02-24T17:03:42.721Z,13.04
2023-02-24T17:06:09.711Z,13.01
2023-02-24T17:08:40.060Z,13.06
2023-02-24T17:11:13.097Z,13.04
2023-02-24T17:13:40.275Z,13.00
2023-02-24T17:16:07.493Z,12.93
2023-02-24T17:18:35.984Z,12.94
2023-02-24T17:21:04.172Z,12.96
2023-02-24T17:23:32.517Z,13.00
2023-02-24T17:26:05.771Z,12.98
2023-02-24T17:28:33.263Z,12.89
2023-02-24T17:31:00.437Z,12.90
2023-02-24T17:33:27.586Z,12.92
2023-02-24T17:35:54.831Z,12.92
2023-02-24T17:38:23.388Z,12.83
2023-02-24T17:40:50.446Z,12.89
2023-02-24T17:43:17.440Z,12.84
2023-02-24T17:45:46.675Z,12.77
2023-02-24T17:48:15.413Z,12.71
2023-02-24T17:50:43.536Z,12.65
2023-02-24T17:53:10.521Z,12.69
2023-02-24T17:55:37.439Z,12.71
2023-02-24T17:58:04.414Z,12.59
2023-02-24T18:00:31.499Z,12.66
2023-02-24T18:02:58.791Z,12.57
2023-02-24T18:05:26.331Z,12.47
2023-02-24T18:07:53.916Z,12.41
2023-02-24T18:10:20.805Z,12.36
2023-02-24T18:12:47.744Z,12.51
2023-02-24T18:15:14.893Z,12.41
2023-02-24T18:17:41.853Z,12.49
2023-02-24T18:20:10.127Z,12.38
2023-02-24T18:22:38.336Z,12.25
2023-02-24T18:25:05.626Z,12.10
2023-02-24T18:27:32.550Z,12.01
2023-02-24T18:29:59.521Z,11.86
2023-02-24T18:32:26.621Z,11.84
2023-02-24T18:34:53.825Z,11.78
2023-02-24T18:37:22.254Z,11.73
2023-02-24T18:39:49.418Z,11.77
2023-02-24T18:42:16.477Z,11.77
2023-02-24T18:44:43.316Z,11.82
2023-02-24T18:47:10.715Z,11.86
2023-02-24T18:49:38.016Z,11.80
2023-02-24T18:52:05.637Z,11.60
2023-02-24T18:54:33.988Z,11.50
2023-02-24T18:57:01.383Z,11.50
2023-02-24T18:59:28.577Z,11.42
2023-02-24T19:01:57.174Z,11.46
2023-02-24T19:04:24.747Z,11.38
2023-02-24T19:06:52.148Z,11.48
2023-02-24T19:09:22.627Z,11.49
2023-02-24T19:11:50.420Z,11.55
2023-02-24T19:14:17.923Z,11.65
2023-02-24T19:16:45.398Z,11.72
2023-02-24T19:19:14.641Z,11.74
2023-02-24T19:21:41.800Z,11.82
2023-02-24T19:24:11.282Z,11.89
2023-02-24T19:26:39.062Z,11.98
2023-02-24T19:29:06.285Z,12.02
2023-02-24T19:31:37.046Z,11.97
2023-02-24T19:34:11.757Z,12.01
2023-02-24T19:36:39.317Z,11.92
2023-02-24T19:39:10.110Z,11.68
2023-02-24T19:41:38.016Z,11.54
2023-02-24T19:44:04.998Z,11.56
2023-02-24T19:46:34.151Z,11.61
2023-02-24T19:49:01.236Z,11.66
2023-02-24T19:51:28.873Z,11.67
2023-02-24T19:53:57.961Z,11.52
2023-02-24T19:56:30.891Z,11.50
2023-02-24T19:59:00.427Z,11.48
2023-02-24T20:01:29.509Z,11.45
2023-02-24T20:03:59.553Z,11.50
2023-02-24T20:06:29.241Z,11.54
2023-02-24T20:09:01.614Z,11.57
2023-02-24T20:11:29.972Z,11.55
2023-02-24T20:13:56.987Z,11.52
2023-02-24T20:16:26.414Z,11.59
2023-02-24T20:18:55.067Z,11.73
2023-02-24T20:21:22.004Z,11.73
2023-02-24T20:23:49.017Z,11.86
2023-02-24T20:26:16.623Z,11.88
2023-02-24T20:28:45.009Z,11.93
2023-02-24T20:31:15.604Z,11.90
2023-02-24T20:33:43.838Z,11.94
2023-02-24T20:36:22.100Z,11.96
2023-02-24T20:38:50.275Z,12.04
2023-02-24T20:41:19.372Z,12.03
2023-02-24T20:43:46.372Z,12.01
2023-02-24T20:46:25.800Z,11.94
2023-02-24T20:48:56.228Z,11.86
2023-02-24T20:51:23.988Z,11.83
2023-02-24T20:53:57.685Z,11.75
2023-02-24T20:56:28.106Z,11.67
2023-02-24T20:59:10.741Z,11.61
2023-02-24T21:01:39.260Z,11.48
2023-02-24T21:04:08.214Z,11.59
2023-02-24T21:06:37.118Z,11.60
2023-02-24T21:09:04.906Z,11.49
2023-02-24T21:11:33.280Z,11.52
2023-02-24T21:14:00.717Z,11.54
2023-02-24T21:16:28.248Z,11.56
2023-02-24T21:18:58.067Z,11.49
2023-02-24T21:21:25.413Z,11.54
2023-02-24T21:27:12.566Z,11.73
2023-02-24T21:32:57.079Z,11.80
2023-02-24T21:35:24.119Z,12.10
2023-02-24T21:37:51.186Z,12.17
2023-02-24T21:40:18.379Z,12.23
2023-02-24T21:42:47.177Z,12.34
2023-02-24T21:45:19.032Z,12.38
2023-02-24T21:47:46.066Z,12.37
2023-02-24T21:50:16.361Z,12.35
2023-02-24T21:52:46.462Z,12.28
2023-02-24T21:55:14.324Z,12.28
2023-02-24T21:57:46.710Z,12.21
2023-02-24T22:00:20.858Z,12.20
2023-02-24T22:02:58.393Z,12.28
2023-02-24T22:05:27.124Z,12.32
2023-02-24T22:07:54.245Z,12.33
2023-02-24T22:10:22.810Z,12.33
2023-02-24T22:12:50.979Z,12.34
2023-02-24T22:15:18.095Z,12.40
2023-02-24T22:17:45.096Z,12.31
2023-02-24T22:20:14.095Z,12.27
2023-02-24T22:22:42.381Z,12.19
2023-02-24T22:25:13.036Z,12.20
2023-02-24T22:27:40.028Z,12.24
2023-02-24T22:30:08.176Z,12.19
2023-02-24T22:32:36.103Z,12.26
2023-02-24T22:35:03.535Z,12.14
2023-02-24T22:37:30.487Z,12.09
2023-02-24T22:39:57.583Z,12.10
2023-02-24T22:42:24.489Z,12.12
2023-02-24T22:44:51.645Z,12.09
2023-02-24T22:47:18.808Z,12.04
2023-02-24T22:49:48.358Z,12.07
2023-02-24T22:52:20.722Z,12.09
2023-02-24T22:54:47.800Z,12.10
2023-02-24T22:57:14.799Z,12.17
2023-02-24T22:59:42.354Z,12.22
2023-02-24T23:02:10.095Z,12.24
2023-02-24T23:04:37.099Z,12.26
2023-02-24T23:07:04.369Z,12.21
2023-02-24T23:09:31.561Z,12.27
2023-02-24T23:11:58.592Z,12.24
2023-02-24T23:14:27.014Z,12.23
2023-02-24T23:16:55.858Z,12.20
2023-02-24T23:19:23.399Z,12.08
2023-02-24T23:21:53.230Z,12.07
2023-02-24T23:24:22.584Z,12.06
2023-02-24T23:26:54.298Z,12.06
2023-02-24T23:29:22.642Z,11.98
2023-02-24T23:31:50.026Z,11.95
2023-02-24T23:34:17.012Z,11.82
2023-02-24T23:36:46.914Z,11.76
2023-02-24T23:39:18.439Z,11.70
2023-02-24T23:41:45.641Z,11.61
2023-02-24T23:44:12.884Z,11.63
2023-02-24T23:46:41.902Z,11.62
2023-02-24T23:49:08.811Z,11.56
2023-02-24T23:51:47.431Z,11.46
2023-02-24T23:54:16.793Z,11.39
2023-02-24T23:56:43.700Z,11.31
2023-02-24T23:59:11.987Z,11.30
